Time;durP1;ratioP1;P1;durP2;ratioP2;P2;SDS_P1;SDS_P2;PMS_P1;PMS_P2;Temp;Humidity;BMP_temperature;BMP_pressure;BME280_temperature;BME280_humidity;BME280_pressure;Samples;Min_cycle;Max_cycle;Signal;HPM_P1;HPM_P2
2023/04/01 00:02:24;;;;;;;4.00;3.05;;;9.90;99.90;;;;;;7401266;19;20604;-77
2023/04/01 00:04:54;;;;;;;3.80;2.80;;;10.10;99.90;;;;;;7400286;19;19923;-78
2023/04/01 00:07:22;;;;;;;3.40;2.85;;;9.90;99.90;;;;;;7400812;19;19922;-78
2023/04/01 00:09:52;;;;;;;3.03;2.63;;;10.00;99.90;;;;;;7400916;19;19922;-78
2023/04/01 00:12:21;;;;;;;3.78;2.63;;;9.90;99.90;;;;;;7402417;19;19946;-78
2023/04/01 00:14:50;;;;;;;4.93;2.80;;;10.00;99.90;;;;;;7399828;19;19918;-78
2023/04/01 00:17:21;;;;;;;3.85;2.65;;;9.90;99.90;;;;;;7401690;19;19922;-78
2023/04/01 00:19:50;;;;;;;4.03;2.97;;;10.00;99.90;;;;;;7399195;19;19951;-78
2023/04/01 00:22:22;;;;;;;6.63;3.13;;;9.90;99.90;;;;;;7398716;19;19925;-79
2023/04/01 00:24:51;;;;;;;4.93;2.67;;;10.00;99.90;;;;;;7402665;19;20245;-78
2023/04/01 00:27:20;;;;;;;4.22;3.13;;;10.00;99.90;;;;;;7402157;19;19922;-77
2023/04/01 00:29:50;;;;;;;6.40;3.78;;;10.00;99.90;;;;;;7400727;19;20332;-78
2023/04/01 00:32:22;;;;;;;6.93;3.45;;;9.90;99.90;;;;;;7398954;19;19986;-77
2023/04/01 00:34:53;;;;;;;3.92;3.15;;;10.00;99.90;;;;;;7400778;19;20482;-79
2023/04/01 00:37:22;;;;;;;4.03;3.20;;;10.00;99.90;;;;;;7397761;19;20290;-78
2023/04/01 00:39:51;;;;;;;5.03;3.83;;;10.00;99.90;;;;;;7399803;19;19923;-78
2023/04/01 00:42:20;;;;;;;4.10;3.22;;;9.90;99.90;;;;;;7399804;19;19919;-78
2023/04/01 00:44:57;;;;;;;3.33;3.03;;;9.90;99.90;;;;;;7398067;19;19938;-78
2023/04/01 00:47:30;;;;;;;5.40;3.55;;;10.00;99.90;;;;;;7399208;19;20269;-78
2023/04/01 00:49:59;;;;;;;3.88;3.20;;;9.80;99.90;;;;;;7398933;19;19926;-78
2023/04/01 00:52:29;;;;;;;6.68;4.30;;;9.90;99.90;;;;;;7399680;19;20281;-79
2023/04/01 00:55:01;;;;;;;5.47;3.53;;;9.80;99.90;;;;;;7398484;19;20439;-78
2023/04/01 00:57:36;;;;;;;6.90;3.65;;;9.80;99.90;;;;;;7396290;19;19930;-78
2023/04/01 01:00:13;;;;;;;5.18;3.67;;;9.90;99.90;;;;;;7399490;19;19919;-81
2023/04/01 01:02:47;;;;;;;5.05;3.33;;;9.90;99.90;;;;;;7397236;19;19923;-79
2023/04/01 01:05:19;;;;;;;6.07;3.88;;;9.90;99.90;;;;;;7406887;19;20364;-78
2023/04/01 01:07:58;;;;;;;4.50;3.38;;;9.80;99.90;;;;;;7403488;19;19955;-77
2023/04/01 01:10:42;;;;;;;7.00;3.80;;;9.80;99.90;;;;;;7405739;19;20406;-77
2023/04/01 01:13:17;;;;;;;4.63;3.22;;;9.90;99.90;;;;;;7405606;19;19914;-77
2023/04/01 01:15:50;;;;;;;5.60;4.03;;;9.90;99.90;;;;;;7403796;19;19923;-77
2023/04/01 01:18:29;;;;;;;4.85;3.80;;;9.80;99.90;;;;;;7401089;19;19930;-77
2023/04/01 01:21:33;;;;;;;6.53;4.13;;;9.90;99.90;;;;;;7402754;19;19930;-77
2023/04/01 01:24:45;;;;;;;4.97;3.55;;;9.70;99.90;;;;;;7403201;19;19922;-78
2023/04/01 01:27:18;;;;;;;4.90;3.60;;;9.90;99.90;;;;;;7400125;19;19943;-77
2023/04/01 01:30:10;;;;;;;6.80;4.22;;;9.80;99.90;;;;;;7402376;19;19986;-77
2023/04/01 01:33:23;;;;;;;6.68;4.25;;;9.90;99.90;;;;;;7402283;19;20270;-77
2023/04/01 01:35:56;;;;;;;6.30;4.03;;;9.70;99.90;;;;;;7399717;19;20344;-77
2023/04/01 01:38:28;;;;;;;8.43;4.38;;;9.90;99.90;;;;;;7401304;19;20285;-77
2023/04/01 01:41:08;;;;;;;6.50;4.20;;;9.70;99.90;;;;;;7403619;19;20684;-77
2023/04/01 01:43:42;;;;;;;8.20;4.60;;;9.80;99.90;;;;;;7402706;19;19922;-78
2023/04/01 01:46:15;;;;;;;5.80;4.18;;;9.90;99.90;;;;;;7400843;19;19943;-77
2023/04/01 01:48:47;;;;;;;6.50;4.30;;;9.80;99.90;;;;;;7402120;19;19954;-78
2023/04/01 01:51:19;;;;;;;7.35;4.80;;;9.80;99.90;;;;;;7403482;19;19926;-78
2023/04/01 01:53:48;;;;;;;6.72;4.38;;;9.80;99.90;;;;;;7401515;19;19929;-77
2023/04/01 01:56:27;;;;;;;6.45;4.30;;;9.70;99.90;;;;;;7402236;19;20266;-77
2023/04/01 01:59:00;;;;;;;6.25;4.00;;;9.70;99.90;;;;;;7399333;19;19922;-77
2023/04/01 02:01:35;;;;;;;7.93;4.45;;;9.80;99.90;;;;;;7402642;19;20359;-78
2023/04/01 02:04:06;;;;;;;8.23;4.82;;;9.70;99.90;;;;;;7401649;19;19925;-77
2023/04/01 02:06:41;;;;;;;9.38;4.78;;;9.70;99.90;;;;;;7401557;19;19939;-77
2023/04/01 02:09:13;;;;;;;8.30;4.90;;;9.80;99.90;;;;;;7402199;19;20452;-77
2023/04/01 02:11:48;;;;;;;8.88;4.93;;;9.60;99.90;;;;;;7401813;19;19936;-77
2023/04/01 02:14:20;;;;;;;7.25;4.65;;;9.80;99.90;;;;;;7258889;19;2801756;-77
2023/04/01 02:16:55;;;;;;;6.95;4.68;;;9.80;99.90;;;;;;7401826;19;19970;-77
2023/04/01 02:19:30;;;;;;;6.60;4.80;;;9.70;99.90;;;;;;7405183;19;19923;-76
2023/04/01 02:22:05;;;;;;;7.18;4.60;;;9.80;99.90;;;;;;7402972;19;19914;-76
2023/04/01 02:24:37;;;;;;;7.15;5.10;;;9.80;99.90;;;;;;7403902;19;19922;-77
2023/04/01 02:27:07;;;;;;;7.43;4.53;;;9.80;99.90;;;;;;7404037;19;19918;-77
2023/04/01 02:29:36;;;;;;;6.85;4.55;;;9.80;99.90;;;;;;7403068;19;20655;-77
2023/04/01 02:32:06;;;;;;;6.18;4.53;;;9.80;99.90;;;;;;7404599;19;19925;-77
2023/04/01 02:34:44;;;;;;;6.88;4.60;;;9.80;99.90;;;;;;7403636;19;20460;-78
2023/04/01 02:37:17;;;;;;;8.60;4.75;;;9.80;99.90;;;;;;7401791;19;19925;-77
2023/04/01 02:39:46;;;;;;;7.20;4.38;;;9.80;99.90;;;;;;7403131;19;19933;-78
2023/04/01 02:42:17;;;;;;;7.45;4.63;;;9.80;99.90;;;;;;7404887;19;20430;-78
2023/04/01 02:44:48;;;;;;;6.18;4.55;;;9.90;99.90;;;;;;7403526;19;20244;-77
2023/04/01 02:47:17;;;;;;;7.30;4.60;;;9.70;99.90;;;;;;7404394;19;19918;-77
2023/04/01 02:49:46;;;;;;;7.43;5.10;;;9.80;99.90;;;;;;7403961;19;19951;-77
2023/04/01 02:52:18;;;;;;;9.07;5.18;;;9.80;99.90;;;;;;7402799;19;20253;-77
2023/04/01 02:54:47;;;;;;;6.95;4.53;;;9.70;99.90;;;;;;7402951;19;20435;-77
2023/04/01 02:57:16;;;;;;;7.85;5.00;;;9.90;99.90;;;;;;7403650;19;19918;-77
2023/04/01 02:59:45;;;;;;;7.68;4.90;;;9.80;99.90;;;;;;7403409;19;19947;-77
2023/04/01 03:02:17;;;;;;;;;;;9.80;99.90;;;;;;7404514;19;19982;-77
2023/04/01 03:04:46;;;;;;;7.78;4.90;;;9.70;99.90;;;;;;7402118;19;19922;-78
2023/04/01 03:07:18;;;;;;;9.13;4.82;;;9.80;99.90;;;;;;7402526;19;19947;-78
2023/04/01 03:09:47;;;;;;;8.48;5.22;;;9.70;99.90;;;;;;7403185;19;19981;-77
2023/04/01 03:12:16;;;;;;;8.65;5.20;;;9.80;99.90;;;;;;7402367;19;19915;-77
2023/04/01 03:14:45;;;;;;;6.10;4.90;;;9.70;99.90;;;;;;7402027;19;19931;-77
2023/04/01 03:17:14;;;;;;;8.23;5.10;;;9.70;99.90;;;;;;7401289;19;19927;-77
2023/04/01 03:19:44;;;;;;;6.60;4.72;;;9.60;99.90;;;;;;7402663;19;19918;-77
2023/04/01 03:22:13;;;;;;;6.72;4.78;;;9.70;99.90;;;;;;7402464;19;19914;-77
2023/04/01 03:24:45;;;;;;;6.82;5.10;;;9.70;99.90;;;;;;7400678;19;19925;-77
2023/04/01 03:27:17;;;;;;;6.85;5.03;;;9.60;99.90;;;;;;7400891;19;19948;-77
2023/04/01 03:29:49;;;;;;;7.32;5.32;;;9.70;99.90;;;;;;7400554;19;19928;-77
2023/04/01 03:32:18;;;;;;;7.03;5.10;;;9.70;99.90;;;;;;7403211;19;19933;-77
2023/04/01 03:34:47;;;;;;;7.57;5.35;;;9.60;99.90;;;;;;7402467;19;20348;-77
2023/04/01 03:37:16;;;;;;;8.48;5.30;;;9.70;99.90;;;;;;7402955;19;19995;-78
2023/04/01 03:39:48;;;;;;;8.23;4.93;;;9.50;99.90;;;;;;7399922;19;19923;-78
2023/04/01 03:42:17;;;;;;;8.85;5.30;;;9.50;99.90;;;;;;7402733;19;19922;-78
2023/04/01 03:44:46;;;;;;;8.13;5.03;;;9.60;99.90;;;;;;7402543;19;19919;-78
2023/04/01 03:47:15;;;;;;;8.05;5.15;;;9.50;99.90;;;;;;7402604;19;19922;-78
2023/04/01 03:49:43;;;;;;;7.43;5.43;;;9.60;99.90;;;;;;7401759;19;20267;-77
2023/04/01 03:52:13;;;;;;;8.63;5.72;;;9.60;99.90;;;;;;7401556;19;19986;-77
2023/04/01 03:54:43;;;;;;;8.43;5.57;;;9.60;99.90;;;;;;7401670;19;19934;-77
2023/04/01 03:57:14;;;;;;;9.48;6.20;;;9.40;99.90;;;;;;7400362;19;19922;-77
2023/04/01 03:59:43;;;;;;;7.63;5.32;;;9.50;99.90;;;;;;7398838;19;19925;-78
2023/04/01 04:02:15;;;;;;;7.38;5.53;;;9.50;99.90;;;;;;7400674;19;19970;-78
2023/04/01 04:04:46;;;;;;;8.38;5.82;;;9.50;99.90;;;;;;7400059;19;19984;-78
2023/04/01 04:07:15;;;;;;;7.05;4.90;;;9.60;99.90;;;;;;7398783;19;19926;-77
2023/04/01 04:09:44;;;;;;;7.15;5.25;;;9.50;99.90;;;;;;7400883;19;19926;-77
2023/04/01 04:12:16;;;;;;;7.53;6.15;;;9.40;99.90;;;;;;7402371;19;19918;-77
2023/04/01 04:14:45;;;;;;;7.55;5.35;;;9.50;99.90;;;;;;7399236;19;19991;-77
2023/04/01 04:17:16;;;;;;;7.68;5.40;;;9.60;99.90;;;;;;7400934;19;20263;-76
2023/04/01 04:19:45;;;;;;;7.75;4.63;;;9.50;99.90;;;;;;7398727;19;19939;-77
2023/04/01 04:22:14;;;;;;;7.88;4.75;;;9.50;99.90;;;;;;7399882;19;19923;-78
2023/04/01 04:24:43;;;;;;;8.50;4.63;;;9.50;99.90;;;;;;7398099;19;19962;-77
2023/04/01 04:27:14;;;;;;;6.63;4.90;;;9.50;99.90;;;;;;7400040;19;19926;-77
2023/04/01 04:29:44;;;;;;;7.85;4.57;;;9.40;99.90;;;;;;7399973;19;20329;-78
2023/04/01 04:32:18;;;;;;;9.00;5.25;;;9.40;99.90;;;;;;7401564;19;19919;-77
2023/04/01 04:34:48;;;;;;;6.82;4.28;;;9.50;99.90;;;;;;7400214;19;19919;-78
2023/04/01 04:37:17;;;;;;;7.63;4.43;;;9.50;99.90;;;;;;7401282;19;19947;-77
2023/04/01 04:39:46;;;;;;;8.48;4.85;;;9.50;99.90;;;;;;7404188;19;19927;-77
2023/04/01 04:42:18;;;;;;;7.10;4.75;;;9.50;99.90;;;;;;7407509;19;19919;-77
2023/04/01 04:44:49;;;;;;;8.57;5.03;;;9.40;99.90;;;;;;7405347;19;19930;-77
2023/04/01 04:47:18;;;;;;;8.18;4.82;;;9.50;99.90;;;;;;7406547;19;20020;-78
2023/04/01 04:49:47;;;;;;;7.40;5.10;;;9.50;99.90;;;;;;7406325;19;19911;-77
2023/04/01 04:52:16;;;;;;;8.15;5.20;;;9.40;99.90;;;;;;7406041;19;19982;-77
2023/04/01 04:54:45;;;;;;;8.07;5.22;;;9.50;99.90;;;;;;7405668;19;19926;-77
2023/04/01 04:57:16;;;;;;;7.80;5.05;;;9.50;99.90;;;;;;7405600;19;19922;-77
2023/04/01 04:59:45;;;;;;;9.27;5.93;;;9.50;99.90;;;;;;7402153;19;19947;-78
2023/04/01 05:02:15;;;;;;;7.45;5.10;;;9.50;99.90;;;;;;7407083;19;20252;-77
2023/04/01 05:04:44;;;;;;;9.25;5.43;;;9.50;99.90;;;;;;7405314;19;20002;-78
2023/04/01 05:07:13;;;;;;;11.07;5.35;;;9.40;99.90;;;;;;7404041;19;19914;-77
2023/04/01 05:09:45;;;;;;;8.80;5.40;;;9.40;99.90;;;;;;7406191;19;19990;-78
2023/04/01 05:12:17;;;;;;;9.20;6.05;;;9.40;99.90;;;;;;7406059;19;19922;-78
2023/04/01 05:14:46;;;;;;;9.02;6.10;;;9.40;99.90;;;;;;7405252;19;19923;-78
2023/04/01 05:17:16;;;;;;;9.13;6.15;;;9.50;99.90;;;;;;7405924;19;19982;-78
2023/04/01 05:19:45;;;;;;;10.23;6.72;;;9.50;99.90;;;;;;7402369;19;20333;-77
2023/04/01 05:22:14;;;;;;;10.52;6.72;;;9.50;99.90;;;;;;7404662;19;19918;-77
2023/04/01 05:24:43;;;;;;;11.05;6.90;;;9.40;99.90;;;;;;7403624;19;19919;-79
2023/04/01 05:27:12;;;;;;;10.90;6.90;;;9.50;99.90;;;;;;7405092;19;20624;-78
2023/04/01 05:29:48;;;;;;;10.65;7.10;;;9.40;99.90;;;;;;7405999;19;19923;-77
2023/04/01 05:32:18;;;;;;;10.40;6.88;;;9.50;99.90;;;;;;7401822;19;19935;-78
2023/04/01 05:34:47;;;;;;;10.65;7.15;;;9.60;99.90;;;;;;7405598;19;19923;-78
2023/04/01 05:37:16;;;;;;;11.18;6.70;;;9.40;99.90;;;;;;7404356;19;19922;-77
2023/04/01 05:39:45;;;;;;;13.02;7.32;;;9.60;99.90;;;;;;7403285;19;20414;-78
2023/04/01 05:42:15;;;;;;;12.55;7.63;;;9.50;99.90;;;;;;7406116;19;19922;-77
2023/04/01 05:44:44;;;;;;;12.02;7.20;;;9.40;99.90;;;;;;7405768;19;19939;-77
2023/04/01 05:47:16;;;;;;;13.43;7.68;;;9.50;99.90;;;;;;7404224;19;19922;-77
2023/04/01 05:49:46;;;;;;;11.02;7.28;;;9.50;99.90;;;;;;7404424;19;19922;-78
2023/04/01 05:52:17;;;;;;;11.48;7.55;;;11.60;99.90;;;;;;7406539;19;19926;-77
2023/04/01 05:54:46;;;;;;;10.75;7.40;;;9.50;99.90;;;;;;7403679;19;19926;-78
2023/04/01 05:57:14;;;;;;;12.13;7.72;;;9.60;99.90;;;;;;7404769;19;19921;-77
2023/04/01 05:59:44;;;;;;;11.35;7.75;;;9.80;99.90;;;;;;7403110;19;20249;-77
2023/04/01 06:02:19;;;;;;;12.27;7.47;;;9.60;99.90;;;;;;7403303;19;19923;-78
2023/04/01 06:04:48;;;;;;;11.55;7.13;;;9.60;99.90;;;;;;7404141;19;19922;-78
2023/04/01 06:07:18;;;;;;;15.57;7.78;;;9.60;99.90;;;;;;7404803;19;19926;-80
2023/04/01 06:09:48;;;;;;;12.93;8.25;;;9.70;99.90;;;;;;7402906;19;19978;-78
2023/04/01 06:12:42;;;;;;;13.88;7.45;;;9.70;99.90;;;;;;7404311;19;20364;-77
2023/04/01 06:15:22;;;;;;;16.17;8.50;;;9.80;99.90;;;;;;7399431;19;19914;-77
2023/04/01 06:18:13;;;;;;;10.85;6.82;;;9.70;99.90;;;;;;7405139;19;20292;-78
2023/04/01 06:20:50;;;;;;;11.68;7.47;;;9.80;99.90;;;;;;7403162;19;19926;-78
2023/04/01 06:23:33;;;;;;;11.80;7.57;;;9.80;99.90;;;;;;7403291;19;19924;-78
2023/04/01 06:26:14;;;;;;;14.10;7.50;;;9.90;99.90;;;;;;7403030;19;19921;-78
2023/04/01 06:29:22;;;;;;;11.30;7.38;;;9.70;99.90;;;;;;7403489;19;19930;-78
2023/04/01 06:32:16;;;;;;;12.50;8.10;;;9.80;99.90;;;;;;7402704;19;19922;-77
2023/04/01 06:35:05;;;;;;;12.60;7.55;;;9.80;99.90;;;;;;7403610;19;20509;-79
2023/04/01 06:38:03;;;;;;;13.40;7.72;;;9.90;99.90;;;;;;7400025;19;20400;-78
2023/04/01 06:40:59;;;;;;;12.93;7.85;;;10.00;99.90;;;;;;7399753;19;19943;-79
2023/04/01 06:43:39;;;;;;;11.95;7.47;;;9.90;99.90;;;;;;7402473;19;19923;-78
2023/04/01 06:46:26;;;;;;;11.10;6.95;;;9.90;99.90;;;;;;7400343;19;20320;-78
2023/04/01 06:49:09;;;;;;;12.32;7.53;;;9.80;99.90;;;;;;7405040;19;19926;-78
2023/04/01 06:51:55;;;;;;;12.60;8.05;;;9.90;99.90;;;;;;7402100;19;19932;-79
2023/04/01 06:54:31;;;;;;;13.82;8.02;;;9.90;99.90;;;;;;7402464;19;20357;-79
2023/04/01 06:57:08;;;;;;;13.18;8.23;;;9.90;99.90;;;;;;7403425;19;20265;-79
2023/04/01 06:59:39;;;;;;;14.13;8.35;;;10.10;99.90;;;;;;7400336;19;19930;-79
2023/04/01 07:02:21;;;;;;;14.25;7.90;;;10.00;99.90;;;;;;7400954;19;19984;-79
2023/04/01 07:04:53;;;;;;;12.77;7.35;;;10.00;99.90;;;;;;7404146;19;19938;-79
2023/04/01 07:07:33;;;;;;;13.73;7.93;;;10.20;99.90;;;;;;7400261;19;20249;-79
2023/04/01 07:10:15;;;;;;;14.32;8.40;;;10.30;99.90;;;;;;7400733;19;20655;-77
2023/04/01 07:12:51;;;;;;;14.02;8.93;;;10.30;99.90;;;;;;7401327;19;19926;-78
2023/04/01 07:15:24;;;;;;;13.57;8.48;;;10.30;99.90;;;;;;7401904;19;19939;-80
2023/04/01 07:17:58;;;;;;;14.35;8.82;;;10.40;99.90;;;;;;7401400;19;19926;-79
2023/04/01 07:20:29;;;;;;;13.68;8.07;;;10.40;99.90;;;;;;7399654;19;20523;-79
2023/04/01 07:23:02;;;;;;;;;;;10.50;99.90;;;;;;7404542;19;19923;-79
2023/04/01 07:25:36;;;;;;;11.35;6.72;;;10.30;99.90;;;;;;7402183;19;20384;-76
2023/04/01 07:28:16;;;;;;;12.75;7.00;;;10.40;99.90;;;;;;7401370;19;20498;-77
2023/04/01 07:30:50;;;;;;;;;;;10.40;99.90;;;;;;7403917;19;19998;-78
2023/04/01 07:33:26;;;;;;;11.77;6.45;;;10.40;99.90;;;;;;7401396;19;20282;-77
2023/04/01 07:36:04;;;;;;;10.57;6.20;;;10.40;99.90;;;;;;7405076;19;19922;-78
2023/04/01 07:38:47;;;;;;;11.48;6.40;;;10.50;99.90;;;;;;7400671;19;19914;-78
2023/04/01 07:41:24;;;;;;;10.88;6.40;;;10.30;99.90;;;;;;7402510;19;19948;-77
2023/04/01 07:44:03;;;;;;;11.88;6.60;;;10.40;99.90;;;;;;7401916;19;19936;-78
2023/04/01 07:46:52;;;;;;;9.73;6.07;;;10.40;99.90;;;;;;7402980;19;19933;-78
2023/04/01 07:49:24;;;;;;;;;;;10.30;99.90;;;;;;7402744;19;20272;-77
2023/04/01 07:52:02;;;;;;;10.45;6.32;;;10.30;99.90;;;;;;7401069;19;20289;-77
2023/04/01 07:54:42;;;;;;;11.02;6.15;;;10.40;99.90;;;;;;7401256;19;20350;-78
2023/04/01 07:57:18;;;;;;;11.40;6.90;;;10.30;99.90;;;;;;7401368;19;19926;-75
2023/04/01 08:00:00;;;;;;;11.07;6.53;;;10.60;99.90;;;;;;7382400;19;19922;-74
2023/04/01 08:02:41;;;;;;;10.48;5.68;;;10.50;99.90;;;;;;7401214;19;19974;-77
2023/04/01 08:05:21;;;;;;;11.50;6.90;;;10.60;99.90;;;;;;7398200;19;19927;-75
2023/04/01 08:07:58;;;;;;;10.02;6.10;;;10.60;99.90;;;;;;7395275;19;19922;-75
2023/04/01 08:10:35;;;;;;;10.45;5.80;;;10.40;99.90;;;;;;7397530;19;20278;-75
2023/04/01 08:13:15;;;;;;;10.57;6.15;;;10.60;99.90;;;;;;7394095;19;19922;-76
2023/04/01 08:15:52;;;;;;;10.98;6.60;;;10.50;99.90;;;;;;7399385;19;19926;-76
2023/04/01 08:18:32;;;;;;;11.07;6.45;;;10.30;99.90;;;;;;7400095;19;19930;-75
2023/04/01 08:21:03;;;;;;;9.90;5.82;;;10.30;99.90;;;;;;7398100;19;19933;-75
2023/04/01 08:23:35;;;;;;;;;;;10.50;99.90;;;;;;7402696;19;19927;-76
2023/04/01 08:26:12;;;;;;;11.73;7.07;;;10.60;99.90;;;;;;7398409;19;19914;-76
2023/04/01 08:28:46;;;;;;;10.68;6.28;;;10.50;99.90;;;;;;7399166;19;19933;-75
2023/04/01 08:31:23;;;;;;;10.80;6.38;;;10.50;99.90;;;;;;7396105;19;20002;-75
2023/04/01 08:33:57;;;;;;;10.00;6.38;;;10.50;99.90;;;;;;7399240;19;19922;-77
2023/04/01 08:36:32;;;;;;;10.27;6.22;;;10.50;99.90;;;;;;7393121;19;19937;-76
2023/04/01 08:39:08;;;;;;;9.75;4.90;;;10.50;99.90;;;;;;7397396;19;19930;-78
2023/04/01 08:42:03;;;;;;;7.57;5.10;;;10.60;99.90;;;;;;7399094;19;19938;-75
2023/04/01 08:45:07;;;;;;;7.43;4.47;;;10.50;99.90;;;;;;7397971;19;19919;-76
2023/04/01 08:47:44;;;;;;;5.90;4.03;;;10.60;99.90;;;;;;7396716;19;19998;-76
2023/04/01 08:50:38;;;;;;;6.93;4.68;;;10.70;99.90;;;;;;7398284;19;19922;-76
2023/04/01 08:53:12;;;;;;;7.80;4.50;;;10.80;99.90;;;;;;7392564;19;19946;-75
2023/04/01 08:55:49;;;;;;;7.63;4.03;;;10.70;99.90;;;;;;7398088;19;19925;-75
2023/04/01 08:58:57;;;;;;;6.13;4.25;;;10.80;99.90;;;;;;7398462;19;19922;-75
2023/04/01 09:01:44;;;;;;;5.13;3.28;;;11.00;99.90;;;;;;7395430;19;19922;-75
2023/04/01 09:04:28;;;;;;;4.95;3.05;;;11.10;99.90;;;;;;7398924;19;19930;-74
2023/04/01 09:07:15;;;;;;;4.45;2.83;;;11.10;99.90;;;;;;7396519;19;19982;-77
2023/04/01 09:10:27;;;;;;;3.95;2.92;;;11.20;99.90;;;;;;7394651;19;19922;-75
2023/04/01 09:13:16;;;;;;;4.82;3.25;;;11.20;99.90;;;;;;7396579;19;19918;-76
2023/04/01 09:16:23;;;;;;;3.67;2.25;;;11.10;99.90;;;;;;7394239;19;20344;-77
2023/04/01 09:19:12;;;;;;;2.28;1.60;;;11.10;99.90;;;;;;7397888;19;20281;-76
2023/04/01 09:22:06;;;;;;;2.97;1.88;;;10.90;99.90;;;;;;7395986;19;19918;-74
2023/04/01 09:25:02;;;;;;;3.08;2.03;;;11.00;99.90;;;;;;7398827;19;19919;-75
2023/04/01 09:27:40;;;;;;;2.72;1.83;;;10.70;99.90;;;;;;7403274;19;19955;-75
2023/04/01 09:30:37;;;;;;;2.65;1.90;;;10.60;99.90;;;;;;7405494;19;19930;-75
2023/04/01 09:33:23;;;;;;;;;;;10.60;99.90;;;;;;7407795;19;19918;-76
2023/04/01 09:36:06;;;;;;;1.33;0.80;;;10.60;99.90;;;;;;7401801;19;19927;-76
2023/04/01 09:38:51;;;;;;;1.27;1.00;;;10.60;99.90;;;;;;7402563;19;19934;-77
2023/04/01 09:41:25;;;;;;;;;;;10.50;99.90;;;;;;7404351;19;19966;-74
2023/04/01 09:44:04;;;;;;;1.42;0.95;;;10.50;99.90;;;;;;7405458;19;19929;-75
2023/04/01 09:46:58;;;;;;;1.80;1.10;;;10.50;99.90;;;;;;7401536;19;19933;-76
2023/04/01 09:49:45;;;;;;;1.85;1.00;;;10.60;99.90;;;;;;7399376;19;20348;-76
2023/04/01 09:52:27;;;;;;;1.55;1.02;;;10.40;99.90;;;;;;7404382;19;20328;-83
2023/04/01 09:55:09;;;;;;;2.40;1.10;;;10.50;99.90;;;;;;7404888;19;19926;-80
2023/04/01 09:58:09;;;;;;;1.60;1.00;;;10.60;99.90;;;;;;7405768;19;20013;-79
2023/04/01 10:00:59;;;;;;;1.80;1.30;;;10.70;99.90;;;;;;7398866;19;19922;-79
2023/04/01 10:04:09;;;;;;;1.40;0.90;;;10.50;99.90;;;;;;7404258;19;19923;-78
2023/04/01 10:07:06;;;;;;;1.30;1.08;;;10.60;99.90;;;;;;7399757;19;19922;-80
2023/04/01 10:10:17;;;;;;;1.33;0.95;;;10.50;99.90;;;;;;7404766;19;19943;-78
2023/04/01 10:13:02;;;;;;;1.15;0.88;;;10.40;99.90;;;;;;7402613;19;19934;-77
2023/04/01 10:15:57;;;;;;;3.90;1.50;;;10.40;99.90;;;;;;7403892;19;19943;-78
2023/04/01 10:19:25;;;;;;;1.88;0.98;;;10.40;99.90;;;;;;7403543;19;20348;-76
2023/04/01 10:22:14;;;;;;;1.95;1.05;;;10.50;99.90;;;;;;7401113;19;19915;-80
2023/04/01 10:25:21;;;;;;;1.58;0.80;;;10.60;99.90;;;;;;7400321;19;19941;-75
2023/04/01 10:28:13;;;;;;;0.90;0.80;;;10.60;99.90;;;;;;7401167;19;20336;-79
2023/04/01 10:31:16;;;;;;;2.85;1.00;;;10.50;99.90;;;;;;7402087;19;19954;-76
2023/04/01 10:34:21;;;;;;;1.30;1.00;;;10.50;99.90;;;;;;7403524;19;19929;-76
2023/04/01 10:36:55;;;;;;;1.98;1.10;;;10.40;99.90;;;;;;7398707;19;20538;-77
2023/04/01 10:39:55;;;;;;;2.20;1.08;;;10.60;99.90;;;;;;7401615;19;19990;-76
2023/04/01 10:43:09;;;;;;;1.73;1.10;;;10.60;99.90;;;;;;7403472;19;19922;-75
2023/04/01 10:46:18;;;;;;;2.00;1.35;;;10.60;99.90;;;;;;7400205;19;19939;-75
2023/04/01 10:49:29;;;;;;;2.17;1.35;;;10.70;99.90;;;;;;7399968;19;19918;-76
2023/04/01 10:52:40;;;;;;;2.55;1.58;;;10.60;99.90;;;;;;7394570;19;19919;-73
2023/04/01 10:55:38;;;;;;;0.90;0.80;;;10.70;99.90;;;;;;7401177;19;19974;-77
2023/04/01 10:58:35;;;;;;;1.10;0.70;;;10.80;99.90;;;;;;7402114;19;19922;-80
2023/04/01 11:01:46;;;;;;;1.02;0.93;;;10.70;99.90;;;;;;7397743;19;19939;-74
2023/04/01 11:05:03;;;;;;;0.80;0.68;;;10.80;99.90;;;;;;7392149;19;22092;-88
2023/04/01 11:08:05;;;;;;;1.00;0.90;;;11.00;99.90;;;;;;7397479;19;20335;-81
2023/04/01 11:11:17;;;;;;;1.85;0.80;;;10.80;99.90;;;;;;7401909;19;19978;-82
2023/04/01 11:14:21;;;;;;;1.42;1.15;;;11.00;99.90;;;;;;7401153;19;20316;-79
2023/04/01 11:17:24;;;;;;;1.40;1.30;;;11.00;99.90;;;;;;7399218;19;19922;-81
2023/04/01 11:20:18;;;;;;;3.03;1.60;;;11.00;99.90;;;;;;7402516;19;19990;-74
2023/04/01 11:23:20;;;;;;;1.60;1.40;;;11.00;99.90;;;;;;7400983;19;19994;-75
2023/04/01 11:26:07;;;;;;;4.68;1.30;;;11.10;99.90;;;;;;7404468;19;19925;-82
2023/04/01 11:28:55;;;;;;;3.30;1.70;;;10.90;99.90;;;;;;7401995;19;19934;-88
2023/04/01 11:31:38;;;;;;;1.27;1.17;;;11.00;99.90;;;;;;7397692;19;19929;-75
2023/04/01 11:34:23;;;;;;;0.63;0.63;;;11.10;99.90;;;;;;7397245;19;19971;-80
2023/04/01 11:37:04;;;;;;;1.70;0.60;;;11.10;99.90;;;;;;7391001;19;19923;-78
2023/04/01 11:39:41;;;;;;;0.55;0.50;;;11.20;99.90;;;;;;7395203;19;19929;-82
2023/04/01 11:42:23;;;;;;;1.08;0.70;;;11.10;99.90;;;;;;7395126;19;20033;-79
2023/04/01 11:45:03;;;;;;;1.05;0.70;;;11.10;99.90;;;;;;7394041;19;19918;-83
2023/04/01 11:47:58;;;;;;;1.65;1.40;;;11.10;99.90;;;;;;7396081;19;20245;-87
2023/04/01 11:50:42;;;;;;;2.15;0.90;;;11.00;99.90;;;;;;7391975;19;19922;-81
2023/04/01 11:53:23;;;;;;;1.00;0.70;;;10.90;99.90;;;;;;7390412;19;19930;-83
2023/04/01 11:56:05;;;;;;;1.00;0.80;;;11.00;99.90;;;;;;7399585;19;19934;-76
2023/04/01 11:59:09;;;;;;;1.48;1.00;;;10.90;99.90;;;;;;7400776;19;19918;-78
2023/04/01 12:01:54;;;;;;;2.92;1.58;;;10.80;99.90;;;;;;7390910;19;20283;-75
2023/04/01 12:04:54;;;;;;;1.73;1.30;;;10.90;99.90;;;;;;7390801;19;19914;-75
2023/04/01 12:07:40;;;;;;;1.23;1.13;;;10.80;99.90;;;;;;7389178;19;19937;-75
2023/04/01 12:10:21;;;;;;;1.58;1.17;;;10.70;99.90;;;;;;7397487;19;20490;-84
2023/04/01 12:12:57;;;;;;;1.50;1.33;;;10.60;99.90;;;;;;7397657;19;20056;-80
2023/04/01 12:15:33;;;;;;;1.23;1.08;;;10.80;99.90;;;;;;7397300;19;19923;-80
2023/04/01 12:18:14;;;;;;;1.90;1.20;;;10.60;99.90;;;;;;7399189;19;19989;-81
2023/04/01 12:20:53;;;;;;;1.60;1.05;;;10.60;99.90;;;;;;7398644;19;19948;-81
2023/04/01 12:23:51;;;;;;;1.58;0.90;;;10.70;99.90;;;;;;7398578;19;19915;-80
2023/04/01 12:26:30;;;;;;;1.20;1.00;;;10.50;99.90;;;;;;7399214;19;21279;-80
2023/04/01 12:29:14;;;;;;;1.20;0.98;;;10.70;99.90;;;;;;7399753;19;19929;-81
2023/04/01 12:31:52;;;;;;;1.10;1.00;;;10.60;99.90;;;;;;7399742;19;19978;-81
2023/04/01 12:34:47;;;;;;;1.25;0.93;;;10.60;99.90;;;;;;7398453;19;19922;-80
2023/04/01 12:37:23;;;;;;;0.70;0.70;;;10.60;99.90;;;;;;7398885;19;20330;-81
2023/04/01 12:40:28;;;;;;;1.88;0.90;;;10.60;99.90;;;;;;7399997;19;20388;-80
2023/04/01 12:43:10;;;;;;;0.95;0.80;;;10.50;99.90;;;;;;7399553;19;19926;-81
2023/04/01 12:45:43;;;;;;;;;;;10.60;99.90;;;;;;7403192;19;19922;-80
2023/04/01 12:48:35;;;;;;;3.22;0.93;;;10.40;99.90;;;;;;7399506;19;19926;-81
2023/04/01 12:51:38;;;;;;;1.00;0.90;;;10.40;99.90;;;;;;7396009;19;19947;-81
2023/04/01 12:54:34;;;;;;;1.17;0.70;;;10.30;99.90;;;;;;7401508;19;19928;-80
2023/04/01 12:57:23;;;;;;;0.93;0.80;;;10.30;99.90;;;;;;7398009;19;19934;-80
2023/04/01 13:00:09;;;;;;;2.05;0.75;;;10.20;99.90;;;;;;7396956;19;19933;-82
2023/04/01 13:02:56;;;;;;;2.80;0.93;;;10.10;99.90;;;;;;7401544;19;19954;-84
2023/04/01 13:05:47;;;;;;;1.70;0.70;;;10.20;99.90;;;;;;7407265;19;20027;-81
2023/04/01 13:08:30;;;;;;;2.47;1.10;;;10.00;99.90;;;;;;7399957;19;19926;-76
2023/04/01 13:11:12;;;;;;;1.67;1.00;;;10.10;99.90;;;;;;7403869;19;19922;-74
2023/04/01 13:14:07;;;;;;;2.28;1.20;;;10.10;99.90;;;;;;7401203;19;19947;-78
2023/04/01 13:16:46;;;;;;;1.88;1.00;;;10.00;99.90;;;;;;7402687;19;19915;-75
2023/04/01 13:19:23;;;;;;;1.15;0.90;;;10.00;99.90;;;;;;7404147;19;19982;-75
2023/04/01 13:22:00;;;;;;;1.27;0.90;;;10.10;99.90;;;;;;7402291;19;19919;-76
2023/04/01 13:24:44;;;;;;;1.63;1.10;;;10.00;99.90;;;;;;7405587;19;19922;-79
2023/04/01 13:27:20;;;;;;;1.42;1.10;;;10.00;99.90;;;;;;7408227;19;19971;-84
2023/04/01 13:30:04;;;;;;;1.00;0.90;;;9.90;99.90;;;;;;7404340;19;19935;-84
2023/04/01 13:32:39;;;;;;;;;;;10.00;99.90;;;;;;7409850;19;19922;-83
2023/04/01 13:35:21;;;;;;;0.80;0.70;;;10.00;99.90;;;;;;7423099;19;19927;-85
2023/04/01 13:38:38;;;;;;;0.93;0.80;;;10.00;99.90;;;;;;7403203;19;19930;-76
2023/04/01 13:41:17;;;;;;;0.80;0.80;;;10.00;99.90;;;;;;7398169;19;19941;-81
2023/04/01 13:43:55;;;;;;;0.95;0.88;;;10.10;99.90;;;;;;7400246;19;19926;-83
2023/04/01 13:47:07;;;;;;;1.00;0.82;;;10.00;99.90;;;;;;7403972;19;19915;-75
2023/04/01 13:50:02;;;;;;;0.80;0.80;;;10.00;99.90;;;;;;7404228;19;19987;-76
2023/04/01 13:52:49;;;;;;;0.95;0.82;;;10.00;99.90;;;;;;7402307;19;20288;-79
2023/04/01 13:55:33;;;;;;;0.55;0.55;;;9.80;99.90;;;;;;7401511;19;19918;-91
2023/04/01 13:58:33;;;;;;;1.08;0.82;;;10.10;99.90;;;;;;7407960;19;19943;-82
2023/04/01 14:01:14;;;;;;;1.20;0.80;;;9.80;99.90;;;;;;7396616;19;19982;-76